createdAt,value
2023-02-19T00:00:02.696Z,500.00
2023-02-19T00:01:02.459Z,500.00
2023-02-19T00:02:02.518Z,500.00
2023-02-19T00:03:02.515Z,500.00
2023-02-19T00:04:02.482Z,496.00
2023-02-19T00:05:02.501Z,500.00
2023-02-19T00:06:02.430Z,499.00
2023-02-19T00:07:02.495Z,500.00
2023-02-19T00:08:02.399Z,499.00
2023-02-19T00:09:02.441Z,513.00
2023-02-19T00:10:02.445Z,504.00
2023-02-19T00:11:02.377Z,496.00
2023-02-19T00:12:02.377Z,504.00
2023-02-19T00:13:02.385Z,500.00
2023-02-19T00:14:02.372Z,505.00
2023-02-19T00:15:02.657Z,502.00
2023-02-19T00:22:02.447Z,505.00
2023-02-19T00:23:02.469Z,494.00
2023-02-19T00:25:22.210Z,500.00
2023-02-19T00:26:22.088Z,500.00
2023-02-19T00:27:22.120Z,500.00
2023-02-19T00:28:22.140Z,500.00
2023-02-19T00:29:22.046Z,500.00
2023-02-19T00:30:22.080Z,502.00
2023-02-19T00:31:22.191Z,504.00
2023-02-19T00:32:22.107Z,521.00
2023-02-19T00:33:22.040Z,509.00
2023-02-19T00:34:21.995Z,503.00
2023-02-19T00:35:22.056Z,502.00
2023-02-19T00:36:22.075Z,529.00
2023-02-19T00:37:22.067Z,521.00
2023-02-19T00:38:22.117Z,500.00
2023-02-19T00:39:21.979Z,488.00
2023-02-19T00:40:21.988Z,511.00
2023-02-19T00:41:21.979Z,541.00
2023-02-19T00:42:22.346Z,540.00
2023-02-19T00:43:22.029Z,581.00
2023-02-19T00:44:21.953Z,592.00
2023-02-19T00:45:21.967Z,581.00
2023-02-19T00:46:22.060Z,580.00
2023-02-19T00:47:22.123Z,582.00
2023-02-19T00:48:21.941Z,599.00
2023-02-19T00:49:21.997Z,608.00
2023-02-19T00:50:21.948Z,609.00
2023-02-19T00:51:21.908Z,635.00
2023-02-19T00:52:21.914Z,629.00
2023-02-19T00:53:21.885Z,619.00
2023-02-19T00:54:21.898Z,615.00
2023-02-19T00:55:21.886Z,635.00
2023-02-19T00:56:21.916Z,643.00
2023-02-19T00:57:21.905Z,627.00
2023-02-19T00:58:21.854Z,645.00
2023-02-19T00:59:21.855Z,640.00
2023-02-19T01:00:21.872Z,649.00
2023-02-19T01:01:21.866Z,653.00
2023-02-19T01:02:21.866Z,678.00
2023-02-19T01:03:21.846Z,745.00
2023-02-19T01:04:22.048Z,760.00
2023-02-19T01:05:21.784Z,736.00
2023-02-19T01:06:21.803Z,726.00
2023-02-19T01:07:21.894Z,752.00
2023-02-19T01:08:21.776Z,765.00
2023-02-19T01:09:21.810Z,756.00
2023-02-19T01:10:22.280Z,807.00
2023-02-19T01:11:21.715Z,785.00
2023-02-19T01:12:21.725Z,827.00
2023-02-19T01:13:21.705Z,850.00
2023-02-19T01:14:21.715Z,831.00
2023-02-19T01:15:21.717Z,823.00
2023-02-19T01:16:21.812Z,781.00
2023-02-19T01:29:42.145Z,500.00
2023-02-19T01:30:41.992Z,500.00
2023-02-19T01:31:42.326Z,500.00
2023-02-19T01:32:41.914Z,500.00
2023-02-19T01:33:41.895Z,500.00
2023-02-19T01:34:41.876Z,500.00
2023-02-19T01:35:41.885Z,502.00
2023-02-19T01:36:42.862Z,500.00
2023-02-19T01:37:41.873Z,500.00
2023-02-19T01:38:41.865Z,499.00
2023-02-19T01:39:41.853Z,460.00
2023-02-19T01:40:41.865Z,427.00
2023-02-19T01:41:41.854Z,446.00
2023-02-19T01:42:41.839Z,479.00
2023-02-19T01:50:41.771Z,692.00
2023-02-19T01:51:41.761Z,696.00
2023-02-19T01:52:42.261Z,691.00
2023-02-19T01:53:41.797Z,708.00
2023-02-19T01:54:41.801Z,699.00
2023-02-19T01:55:41.757Z,707.00
2023-02-19T01:56:41.718Z,735.00
2023-02-19T01:57:41.732Z,778.00
2023-02-19T01:58:41.723Z,791.00
2023-02-19T02:00:41.822Z,840.00
2023-02-19T02:01:41.730Z,866.00
2023-02-19T02:02:41.709Z,873.00
2023-02-19T02:03:41.725Z,863.00
2023-02-19T02:04:41.716Z,840.00
2023-02-19T02:05:41.676Z,827.00
2023-02-19T02:06:41.669Z,788.00
2023-02-19T02:22:39.899Z,500.00
2023-02-19T02:23:39.640Z,500.00
2023-02-19T02:24:39.555Z,500.00
2023-02-19T02:25:39.676Z,500.00
2023-02-19T02:26:39.561Z,500.00
2023-02-19T02:27:39.556Z,500.00
2023-02-19T02:30:39.552Z,501.00
2023-02-19T02:31:39.697Z,500.00
2023-02-19T02:32:39.581Z,505.00
2023-02-19T02:33:39.470Z,500.00
2023-02-19T02:34:39.487Z,500.00
2023-02-19T02:35:39.513Z,505.00
2023-02-19T02:36:39.513Z,503.00
2023-02-19T02:37:39.469Z,504.00
2023-02-19T02:38:45.408Z,501.00
2023-02-19T02:39:40.476Z,502.00
2023-02-19T02:40:39.451Z,486.00
2023-02-19T02:41:39.442Z,493.00
2023-02-19T02:42:39.556Z,489.00
2023-02-19T02:43:39.424Z,489.00
2023-02-19T02:44:39.442Z,502.00
2023-02-19T02:45:39.500Z,501.00
2023-02-19T02:46:39.391Z,506.00
2023-02-19T02:47:39.473Z,510.00
2023-02-19T02:48:39.470Z,536.00
2023-02-19T02:49:39.433Z,537.00
2023-02-19T02:50:40.251Z,526.00
2023-02-19T02:51:39.535Z,543.00
2023-02-19T02:52:39.606Z,561.00
2023-02-19T02:53:39.836Z,567.00
2023-02-19T02:54:39.720Z,563.00
2023-02-19T02:55:39.756Z,555.00
2023-02-19T02:56:39.969Z,562.00
2023-02-19T02:59:02.128Z,500.00
2023-02-19T03:13:47.649Z,500.00
2023-02-19T03:14:47.454Z,500.00
2023-02-19T03:15:47.186Z,500.00
2023-02-19T03:16:47.171Z,500.00
2023-02-19T03:17:47.068Z,500.00
2023-02-19T03:18:47.092Z,500.00
2023-02-19T03:19:47.051Z,502.00
2023-02-19T03:20:47.077Z,500.00
2023-02-19T03:21:47.108Z,503.00
2023-02-19T03:22:47.016Z,500.00
2023-02-19T03:23:47.055Z,500.00
2023-02-19T03:24:47.097Z,500.00
2023-02-19T03:25:47.019Z,500.00
2023-02-19T03:26:46.999Z,502.00
2023-02-19T03:27:47.076Z,504.00
2023-02-19T03:28:47.074Z,500.00
2023-02-19T03:29:47.523Z,501.00
2023-02-19T03:30:46.982Z,503.00
2023-02-19T03:31:47.110Z,509.00
2023-02-19T03:52:14.183Z,500.00
2023-02-19T03:53:27.328Z,500.00
2023-02-19T03:55:41.919Z,500.00
2023-02-19T03:58:01.245Z,500.00
2023-02-19T04:06:00.359Z,500.00
2023-02-19T04:16:19.279Z,500.00
2023-02-19T04:18:38.321Z,500.00
2023-02-19T04:19:39.455Z,500.00
2023-02-19T04:27:17.678Z,500.00
2023-02-19T04:28:17.757Z,500.00
2023-02-19T04:29:17.352Z,500.00
2023-02-19T04:30:17.377Z,500.00
2023-02-19T04:31:17.444Z,500.00
2023-02-19T04:32:17.316Z,500.00
2023-02-19T04:33:17.302Z,500.00
2023-02-19T04:34:17.365Z,503.00
2023-02-19T04:35:17.286Z,500.00
2023-02-19T04:37:37.177Z,500.00
2023-02-19T04:38:37.238Z,500.00
2023-02-19T04:39:37.018Z,500.00
2023-02-19T04:40:36.992Z,500.00
2023-02-19T04:41:37.043Z,500.00
2023-02-19T04:42:37.006Z,502.00
2023-02-19T04:43:37.008Z,500.00
2023-02-19T04:44:37.073Z,500.00
2023-02-19T04:45:37.371Z,500.00
2023-02-19T04:46:36.970Z,503.00
2023-02-19T04:47:37.012Z,505.00
2023-02-19T04:48:36.966Z,500.00
2023-02-19T04:49:37.017Z,500.00
2023-02-19T04:50:36.953Z,500.00
2023-02-19T04:51:36.964Z,500.00
2023-02-19T04:52:36.974Z,500.00
2023-02-19T04:53:36.917Z,505.00
2023-02-19T04:54:36.921Z,500.00
2023-02-19T04:55:36.932Z,500.00
2023-02-19T04:56:36.896Z,504.00
2023-02-19T04:57:36.933Z,502.00
2023-02-19T04:58:37.035Z,500.00
2023-02-19T04:59:37.123Z,501.00
2023-02-19T05:00:37.132Z,500.00
2023-02-19T05:01:37.258Z,500.00
2023-02-19T05:02:37.250Z,500.00
2023-02-19T05:03:37.293Z,504.00
2023-02-19T05:04:37.459Z,515.00
2023-02-19T05:05:37.459Z,535.00
2023-02-19T05:06:37.553Z,542.00
2023-02-19T05:07:37.553Z,556.00
2023-02-19T05:08:37.635Z,551.00
2023-02-19T05:09:37.749Z,551.00
2023-02-19T05:10:37.774Z,531.00
2023-02-19T05:11:37.807Z,528.00
2023-02-19T05:12:37.923Z,528.00
2023-02-19T05:13:37.999Z,514.00
2023-02-19T05:14:38.014Z,520.00
2023-02-19T05:15:54.333Z,518.00
2023-02-19T05:20:54.492Z,500.00
2023-02-19T05:26:38.418Z,500.00
2023-02-19T05:27:38.065Z,500.00
2023-02-19T05:28:38.106Z,500.00
2023-02-19T05:29:38.023Z,500.00
2023-02-19T05:30:38.028Z,500.00
2023-02-19T05:31:38.256Z,498.00
2023-02-19T05:32:38.099Z,500.00
2023-02-19T05:33:38.345Z,502.00
2023-02-19T05:34:37.983Z,500.00
2023-02-19T05:35:38.047Z,500.00
2023-02-19T05:36:37.994Z,501.00
2023-02-19T05:37:38.011Z,502.00
2023-02-19T05:38:37.973Z,500.00
2023-02-19T05:39:38.014Z,501.00
2023-02-19T05:40:37.992Z,500.00
2023-02-19T05:41:37.937Z,505.00
2023-02-19T05:42:37.956Z,507.00
2023-02-19T05:43:37.952Z,505.00
2023-02-19T05:44:37.972Z,500.00
2023-02-19T05:45:37.926Z,505.00
2023-02-19T05:46:37.965Z,506.00
2023-02-19T05:47:37.989Z,503.00
2023-02-19T05:48:37.902Z,501.00
2023-02-19T05:49:37.921Z,511.00
2023-02-19T05:50:39.824Z,513.00
2023-02-19T05:51:37.920Z,515.00
2023-02-19T05:52:37.867Z,530.00
2023-02-19T05:53:37.843Z,534.00
2023-02-19T05:54:37.852Z,540.00
2023-02-19T05:55:37.854Z,555.00
2023-02-19T05:56:37.868Z,548.00
2023-02-19T05:57:37.873Z,536.00
2023-02-19T05:58:37.820Z,544.00
2023-02-19T05:59:37.865Z,543.00
2023-02-19T06:00:37.820Z,532.00
2023-02-19T06:01:37.884Z,519.00
2023-02-19T06:02:37.890Z,525.00
2023-02-19T06:03:37.962Z,532.00
2023-02-19T06:04:37.960Z,538.00
2023-02-19T06:05:37.962Z,539.00
2023-02-19T06:06:38.066Z,532.00
2023-02-19T06:07:38.085Z,524.00
2023-02-19T06:08:38.056Z,514.00
2023-02-19T06:09:38.105Z,500.00
2023-02-19T06:10:38.091Z,510.00
2023-02-19T06:11:38.115Z,517.00
2023-02-19T06:12:38.074Z,500.00
2023-02-19T06:13:38.116Z,500.00
2023-02-19T06:14:38.139Z,504.00
2023-02-19T06:15:38.103Z,511.00
2023-02-19T06:16:38.108Z,518.00
2023-02-19T06:17:38.158Z,501.00
2023-02-19T06:18:38.110Z,504.00
2023-02-19T06:19:38.141Z,500.00
2023-02-19T06:20:38.125Z,501.00
2023-02-19T06:21:38.135Z,498.00
2023-02-19T06:22:38.188Z,512.00
2023-02-19T06:23:38.245Z,518.00
2023-02-19T06:24:38.188Z,519.00
2023-02-19T06:25:38.209Z,518.00
2023-02-19T06:26:38.186Z,501.00
2023-02-19T06:27:38.218Z,512.00
2023-02-19T06:28:38.246Z,500.00
2023-02-19T06:29:38.259Z,496.00
2023-02-19T06:30:38.296Z,500.00
2023-02-19T06:31:38.434Z,501.00
2023-02-19T06:32:38.357Z,501.00
2023-02-19T06:33:38.444Z,520.00
2023-02-19T06:34:38.379Z,562.00
2023-02-19T06:35:38.390Z,577.00
2023-02-19T06:36:38.403Z,577.00
2023-02-19T06:37:38.457Z,578.00
2023-02-19T06:38:38.507Z,581.00
2023-02-19T06:39:38.545Z,579.00
2023-02-19T06:40:38.652Z,587.00
2023-02-19T06:41:38.714Z,602.00
2023-02-19T06:48:39.876Z,500.00
2023-02-19T06:49:39.982Z,500.00
2023-02-19T08:03:38.568Z,500.00
2023-02-19T08:04:38.654Z,500.00
2023-02-19T08:05:38.871Z,500.00
2023-02-19T08:06:38.235Z,500.00
2023-02-19T08:07:38.486Z,500.00
2023-02-19T08:08:37.963Z,504.00
2023-02-19T08:09:37.987Z,506.00
2023-02-19T08:10:38.350Z,539.00
2023-02-19T08:11:38.284Z,503.00
2023-02-19T08:12:38.380Z,530.00
2023-02-19T08:14:58.984Z,500.00
2023-02-19T08:21:56.116Z,500.00
2023-02-19T08:34:55.862Z,502.00
2023-02-19T08:35:55.877Z,524.00
2023-02-19T08:36:55.833Z,499.00
2023-02-19T08:37:55.836Z,514.00
2023-02-19T08:38:55.843Z,548.00
2023-02-19T08:39:55.956Z,525.00
2023-02-19T08:40:56.111Z,499.00
2023-02-19T08:41:55.941Z,440.00
2023-02-19T08:42:55.898Z,436.00
2023-02-19T08:43:56.029Z,456.00
2023-02-19T08:44:55.965Z,496.00
2023-02-19T08:45:56.114Z,528.00
2023-02-19T08:46:56.032Z,549.00
2023-02-19T08:47:56.087Z,555.00
2023-02-19T08:59:56.475Z,661.00
2023-02-19T09:00:56.443Z,597.00
2023-02-19T09:01:56.452Z,750.00
2023-02-19T09:02:56.472Z,731.00
2023-02-19T09:03:56.568Z,802.00
2023-02-19T09:04:56.522Z,907.00
2023-02-19T09:05:56.596Z,768.00
2023-02-19T09:06:56.604Z,678.00
2023-02-19T09:07:56.642Z,864.00
2023-02-19T09:08:56.644Z,992.00
2023-02-19T09:09:56.651Z,1239.00
2023-02-19T09:10:56.725Z,1430.00
2023-02-19T09:11:56.728Z,1472.00
2023-02-19T09:12:56.767Z,1300.00
2023-02-19T09:13:56.808Z,1190.00
2023-02-19T09:14:56.792Z,1064.00
2023-02-19T09:15:56.956Z,1094.00
2023-02-19T09:16:56.905Z,1192.00
2023-02-19T09:18:56.998Z,1440.00
2023-02-19T09:19:56.988Z,1375.00
2023-02-19T09:20:57.000Z,1153.00
2023-02-19T09:21:57.004Z,1314.00
2023-02-19T09:22:57.057Z,1273.00
2023-02-19T09:23:57.129Z,1336.00
2023-02-19T09:24:57.067Z,1849.00
2023-02-19T09:25:57.138Z,2144.00
2023-02-19T09:26:57.193Z,2261.00
2023-02-19T09:27:57.224Z,2463.00
2023-02-19T09:28:57.263Z,2364.00
2023-02-19T09:29:57.317Z,2286.00
2023-02-19T09:30:57.390Z,2027.00
2023-02-19T09:31:57.308Z,1848.00
2023-02-19T09:32:57.326Z,1629.00
2023-02-19T09:33:57.411Z,1373.00
2023-02-19T09:34:57.388Z,1065.00
2023-02-19T09:35:57.416Z,779.00
2023-02-19T09:36:57.427Z,846.00
2023-02-19T09:37:57.503Z,1171.00
2023-02-19T09:38:57.544Z,1140.00
2023-02-19T09:39:57.547Z,1330.00
2023-02-19T09:40:57.590Z,1174.00
2023-02-19T09:42:57.657Z,1150.00
2023-02-19T09:43:57.679Z,1185.00
2023-02-19T09:44:57.670Z,1089.00
2023-02-19T09:45:57.717Z,1014.00
2023-02-19T09:46:57.712Z,1173.00
2023-02-19T09:48:57.765Z,810.00
2023-02-19T09:49:57.760Z,855.00
2023-02-19T09:51:57.780Z,606.00
2023-02-19T09:52:57.827Z,598.00
2023-02-19T09:53:57.919Z,644.00
2023-02-19T09:54:57.933Z,626.00
2023-02-19T09:55:57.965Z,597.00
2023-02-19T09:56:57.971Z,511.00
2023-02-19T09:57:58.026Z,484.00
2023-02-19T10:04:58.182Z,533.00
2023-02-19T10:09:17.930Z,500.00
2023-02-19T10:10:18.223Z,500.00
2023-02-19T10:11:17.802Z,500.00
2023-02-19T10:12:17.996Z,500.00
2023-02-19T10:13:17.627Z,500.00
2023-02-19T10:14:17.843Z,470.00
2023-02-19T10:15:18.017Z,468.00
2023-02-19T10:16:17.652Z,506.00
2023-02-19T10:17:17.672Z,400.00
2023-02-19T10:18:17.684Z,469.00
2023-02-19T10:19:17.637Z,500.00
2023-02-19T10:20:17.746Z,500.00
2023-02-19T10:35:56.567Z,500.00
2023-02-19T10:36:56.371Z,500.00
2023-02-19T10:37:56.048Z,500.00
2023-02-19T10:38:55.973Z,500.00
2023-02-19T10:39:55.973Z,500.00
2023-02-19T10:40:56.123Z,500.00
2023-02-19T10:41:56.509Z,593.00
2023-02-19T10:42:56.234Z,724.00
2023-02-19T10:43:55.988Z,803.00
2023-02-19T10:44:55.928Z,800.00
2023-02-19T10:45:55.968Z,833.00
2023-02-19T10:46:55.932Z,1026.00
2023-02-19T10:49:15.747Z,500.00
2023-02-19T10:51:34.626Z,500.00
2023-02-19T10:52:34.461Z,500.00
2023-02-19T10:53:34.423Z,500.00
2023-02-19T10:54:35.394Z,500.00
2023-02-19T10:55:35.521Z,500.00
2023-02-19T10:56:34.195Z,493.00
2023-02-19T10:57:34.185Z,495.00
2023-02-19T10:58:34.229Z,475.00
2023-02-19T10:59:34.536Z,466.00
2023-02-19T11:00:34.301Z,551.00
2023-02-19T11:01:34.152Z,549.00
2023-02-19T11:02:34.123Z,555.00
2023-02-19T11:04:53.772Z,500.00
2023-02-19T11:05:53.625Z,500.00
2023-02-19T11:06:54.143Z,500.00
2023-02-19T11:07:53.624Z,500.00
2023-02-19T11:18:48.851Z,500.00
2023-02-19T11:19:49.059Z,500.00
2023-02-19T11:20:48.760Z,500.00
2023-02-19T11:21:50.235Z,500.00
2023-02-19T11:24:09.567Z,500.00
2023-02-19T11:25:23.455Z,500.00
2023-02-19T11:26:08.392Z,500.00
2023-02-19T11:27:08.150Z,500.00
2023-02-19T11:29:29.027Z,500.00
2023-02-19T11:30:27.975Z,500.00
2023-02-19T11:31:28.321Z,500.00
2023-02-19T11:32:27.530Z,500.00
2023-02-19T11:33:27.561Z,500.00
2023-02-19T11:34:27.266Z,574.00
2023-02-19T11:35:27.490Z,428.00
2023-02-19T11:36:29.739Z,492.00
2023-02-19T11:38:47.183Z,500.00
2023-02-19T11:43:46.238Z,500.00
2023-02-19T11:44:46.533Z,500.00
2023-02-19T11:45:46.004Z,500.00
2023-02-19T11:46:47.023Z,500.00
2023-02-19T11:47:45.659Z,500.00
2023-02-19T12:13:34.364Z,500.00
2023-02-19T12:23:44.569Z,500.00
2023-02-19T12:25:54.468Z,500.00
2023-02-19T12:40:01.016Z,500.00
2023-02-19T12:42:26.391Z,500.00
2023-02-19T12:46:01.877Z,500.00
2023-02-19T12:47:02.254Z,500.00
2023-02-19T12:53:39.213Z,500.00
2023-02-19T13:09:39.130Z,594.00
2023-02-19T13:23:37.048Z,500.00
2023-02-19T14:09:11.280Z,500.00
2023-02-19T14:10:11.082Z,500.00
2023-02-19T14:14:50.240Z,500.00
2023-02-19T14:45:38.778Z,500.00
2023-02-19T14:47:51.860Z,500.00
2023-02-19T14:50:10.491Z,500.00
2023-02-19T14:51:10.514Z,500.00
2023-02-19T14:52:10.624Z,500.00
2023-02-19T14:53:09.917Z,500.00
2023-02-19T14:54:09.883Z,500.00
2023-02-19T14:55:09.919Z,488.00
2023-02-19T14:56:09.849Z,434.00
2023-02-19T14:57:09.934Z,400.00
2023-02-19T14:58:10.091Z,400.00
2023-02-19T15:04:13.473Z,500.00
2023-02-19T15:25:47.876Z,444.00
2023-02-19T15:26:47.886Z,442.00
2023-02-19T15:27:47.944Z,502.00
2023-02-19T15:28:47.876Z,517.00
2023-02-19T15:29:47.877Z,500.00
2023-02-19T15:30:47.864Z,536.00
2023-02-19T15:31:47.924Z,561.00
2023-02-19T15:32:47.834Z,629.00
2023-02-19T15:33:47.846Z,566.00
2023-02-19T15:34:47.835Z,477.00
2023-02-19T15:35:47.801Z,471.00
2023-02-19T15:36:47.823Z,515.00
2023-02-19T15:37:47.817Z,967.00
2023-02-19T15:38:48.297Z,1061.00
2023-02-19T15:39:48.023Z,1280.00
2023-02-19T15:40:47.864Z,1175.00
2023-02-19T15:41:48.706Z,493.00
2023-02-19T15:42:49.435Z,474.00
2023-02-19T15:43:48.777Z,485.00
2023-02-19T15:44:48.633Z,525.00
2023-02-19T15:45:48.494Z,663.00
2023-02-19T15:46:48.466Z,597.00
2023-02-19T15:47:48.656Z,600.00
2023-02-19T15:51:07.512Z,500.00
2023-02-19T15:52:07.472Z,500.00
2023-02-19T15:53:07.090Z,500.00
2023-02-19T15:55:07.194Z,500.00
2023-02-19T15:56:07.402Z,531.00
2023-02-19T15:57:07.034Z,500.00
2023-02-19T15:58:07.099Z,514.00
2023-02-19T15:59:07.119Z,419.00
2023-02-19T16:00:07.022Z,400.00
2023-02-19T16:01:07.068Z,406.00
2023-02-19T16:02:07.037Z,400.00
2023-02-19T16:03:07.128Z,445.00
2023-02-19T16:04:07.036Z,570.00
2023-02-19T16:05:07.072Z,477.00
2023-02-19T16:06:06.961Z,451.00
2023-02-19T16:07:07.011Z,554.00
2023-02-19T16:08:08.131Z,663.00
2023-02-19T16:09:08.939Z,772.00
2023-02-19T16:11:27.145Z,500.00
2023-02-19T16:13:35.988Z,500.00
2023-02-19T16:14:27.291Z,500.00
2023-02-19T16:15:26.878Z,500.00
2023-02-19T16:16:26.937Z,500.00
2023-02-19T16:17:26.894Z,500.00
2023-02-19T16:43:20.433Z,500.00
2023-02-19T16:44:21.164Z,500.00
2023-02-19T16:45:20.453Z,500.00
2023-02-19T16:46:20.224Z,500.00
2023-02-19T16:47:20.355Z,500.00
2023-02-19T16:48:21.397Z,538.00
2023-02-19T16:50:39.962Z,500.00
2023-02-19T16:51:42.330Z,500.00
2023-02-19T16:54:06.270Z,500.00
2023-02-19T16:59:12.744Z,500.00
2023-02-19T17:00:12.508Z,500.00
2023-02-19T17:01:13.284Z,500.00
2023-02-19T17:02:13.188Z,500.00
2023-02-19T17:03:12.465Z,500.00
2023-02-19T17:04:12.463Z,500.00
2023-02-19T17:05:12.439Z,574.00
2023-02-19T17:06:12.477Z,535.00
2023-02-19T17:07:12.409Z,518.00
2023-02-19T17:08:12.419Z,576.00
2023-02-19T17:09:12.500Z,571.00
2023-02-19T17:10:12.421Z,476.00
2023-02-19T17:11:12.595Z,592.00
2023-02-19T17:12:12.411Z,559.00
2023-02-19T17:13:12.365Z,460.00
2023-02-19T17:14:12.381Z,400.00
2023-02-19T17:15:12.331Z,400.00
2023-02-19T17:16:12.345Z,400.00
2023-02-19T17:17:12.386Z,400.00
2023-02-19T17:18:12.375Z,400.00
2023-02-19T17:19:12.317Z,458.00
2023-02-19T17:20:12.300Z,526.00
2023-02-19T17:21:12.544Z,550.00
2023-02-19T17:22:12.280Z,583.00
2023-02-19T17:23:12.329Z,674.00
2023-02-19T17:24:12.389Z,884.00
2023-02-19T17:25:12.449Z,1064.00
2023-02-19T17:26:12.369Z,1073.00
2023-02-19T17:27:12.419Z,1240.00
2023-02-19T17:28:12.442Z,1557.00
2023-02-19T17:29:12.483Z,1416.00
2023-02-19T17:30:12.589Z,1370.00
2023-02-19T17:31:12.929Z,1174.00
2023-02-19T17:32:12.732Z,1185.00
2023-02-19T17:33:12.674Z,1411.00
2023-02-19T17:34:12.813Z,1291.00
2023-02-19T17:35:12.820Z,1244.00
2023-02-19T17:36:12.850Z,1431.00
2023-02-19T17:37:12.831Z,1426.00
2023-02-19T17:38:12.904Z,1495.00
2023-02-19T17:40:34.094Z,500.00
2023-02-19T17:41:35.143Z,500.00
2023-02-19T17:42:33.898Z,500.00
2023-02-19T17:43:33.408Z,500.00
2023-02-19T17:44:33.379Z,500.00
2023-02-19T17:48:46.628Z,500.00
2023-02-19T17:52:20.582Z,500.00
2023-02-19T17:53:20.478Z,500.00
2023-02-19T17:59:40.842Z,500.00
2023-02-19T18:00:41.398Z,500.00
2023-02-19T18:01:40.775Z,500.00
2023-02-19T18:02:40.317Z,500.00
2023-02-19T18:03:40.408Z,500.00
2023-02-19T18:04:41.213Z,500.00
2023-02-19T18:05:40.841Z,486.00
2023-02-19T18:12:39.752Z,500.00
2023-02-19T18:13:39.568Z,500.00
2023-02-19T18:14:39.711Z,500.00
2023-02-19T18:15:39.445Z,500.00
2023-02-19T18:16:39.410Z,500.00
2023-02-19T18:17:39.504Z,805.00
2023-02-19T18:18:39.392Z,400.00
2023-02-19T18:19:39.410Z,400.00
2023-02-19T18:20:39.490Z,400.00
2023-02-19T18:21:39.351Z,400.00
2023-02-19T18:22:39.365Z,400.00
2023-02-19T18:23:39.372Z,400.00
2023-02-19T18:24:40.204Z,400.00
2023-02-19T18:25:39.394Z,400.00
2023-02-19T18:26:39.356Z,420.00
2023-02-19T18:27:39.343Z,500.00
2023-02-19T18:28:39.642Z,533.00
2023-02-19T18:41:22.933Z,500.00
2023-02-19T18:42:24.032Z,500.00
2023-02-19T19:03:41.713Z,685.00
2023-02-19T19:31:21.481Z,500.00
2023-02-19T19:32:23.823Z,500.00
2023-02-19T19:34:41.191Z,500.00
2023-02-19T19:53:19.851Z,500.00
2023-02-19T19:59:57.855Z,500.00
2023-02-19T20:01:57.447Z,400.00
2023-02-19T20:06:16.793Z,500.00
2023-02-19T20:07:16.441Z,500.00
2023-02-19T20:08:16.512Z,500.00
2023-02-19T20:09:16.468Z,500.00
2023-02-19T20:10:16.571Z,500.00
2023-02-19T20:11:16.634Z,431.00
2023-02-19T20:12:16.752Z,573.00
2023-02-19T20:13:17.255Z,732.00
2023-02-19T20:15:36.537Z,500.00
2023-02-19T20:16:36.538Z,500.00
2023-02-19T20:17:36.185Z,500.00
2023-02-19T20:18:36.216Z,500.00
2023-02-19T20:19:36.208Z,500.00
2023-02-19T20:20:36.193Z,583.00
2023-02-19T20:21:36.168Z,590.00
2023-02-19T20:22:36.174Z,567.00
2023-02-19T20:23:36.189Z,505.00
2023-02-19T20:24:36.149Z,497.00
2023-02-19T20:25:36.157Z,478.00
2023-02-19T20:26:36.120Z,420.00
2023-02-19T20:27:36.201Z,400.00
2023-02-19T20:28:36.119Z,513.00
2023-02-19T20:29:36.099Z,573.00
2023-02-19T20:30:36.116Z,578.00
2023-02-19T20:31:36.220Z,619.00
2023-02-19T20:32:36.104Z,641.00
2023-02-19T20:33:36.065Z,668.00
2023-02-19T20:34:36.058Z,719.00
2023-02-19T20:35:36.055Z,828.00
2023-02-19T20:36:36.062Z,945.00
2023-02-19T20:37:36.032Z,883.00
2023-02-19T20:39:56.112Z,500.00
2023-02-19T20:40:56.322Z,500.00
2023-02-19T20:41:56.112Z,500.00
2023-02-19T20:42:56.029Z,500.00
2023-02-19T20:43:56.056Z,500.00
2023-02-19T20:44:56.011Z,515.00
2023-02-19T20:45:56.051Z,516.00
2023-02-19T20:46:56.003Z,500.00
2023-02-19T20:47:55.972Z,517.00
2023-02-19T20:48:56.158Z,452.00
2023-02-19T20:49:56.052Z,400.00
2023-02-19T20:50:56.009Z,400.00
2023-02-19T20:51:55.985Z,511.00
2023-02-19T20:54:16.587Z,500.00
2023-02-19T20:55:16.334Z,500.00
2023-02-19T21:01:50.316Z,500.00
2023-02-19T21:03:54.976Z,500.00
2023-02-19T21:04:54.649Z,500.00
2023-02-19T21:05:54.665Z,500.00
2023-02-19T21:06:54.663Z,500.00
2023-02-19T21:07:54.628Z,500.00
2023-02-19T21:08:54.601Z,500.00
2023-02-19T21:09:54.886Z,485.00
2023-02-19T21:10:54.625Z,582.00
2023-02-19T21:11:54.593Z,722.00
2023-02-19T21:12:54.619Z,643.00
2023-02-19T21:13:54.635Z,623.00
2023-02-19T21:14:54.648Z,859.00
2023-02-19T21:15:54.856Z,976.00
2023-02-19T21:16:54.559Z,1029.00
2023-02-19T21:17:54.666Z,1043.00
2023-02-19T21:18:54.687Z,749.00
2023-02-19T21:19:54.765Z,531.00
2023-02-19T21:20:54.825Z,529.00
2023-02-19T21:21:54.897Z,566.00
2023-02-19T21:22:54.907Z,465.00
2023-02-19T21:26:34.661Z,500.00
2023-02-19T21:27:34.332Z,500.00
2023-02-19T21:28:34.242Z,500.00
2023-02-19T21:29:34.292Z,500.00
2023-02-19T21:30:34.306Z,500.00
2023-02-19T21:31:34.314Z,501.00
2023-02-19T21:32:34.272Z,475.00
2023-02-19T21:33:34.210Z,400.00
2023-02-19T21:34:34.211Z,400.00
2023-02-19T21:35:34.214Z,400.00
2023-02-19T21:36:34.204Z,725.00
2023-02-19T21:37:34.245Z,632.00
2023-02-19T21:38:34.200Z,620.00
2023-02-19T21:39:34.171Z,1066.00
2023-02-19T21:40:34.211Z,1150.00
2023-02-19T21:41:34.172Z,1185.00
2023-02-19T21:42:34.152Z,1090.00
2023-02-19T21:43:34.166Z,1031.00
2023-02-19T21:44:34.080Z,945.00
2023-02-19T21:47:53.827Z,500.00
2023-02-19T21:48:54.020Z,500.00
2023-02-19T21:49:53.705Z,500.00
2023-02-19T21:50:53.795Z,500.00
2023-02-19T21:51:54.244Z,500.00
2023-02-19T21:52:53.709Z,461.00
2023-02-19T21:53:53.696Z,695.00
2023-02-19T21:54:53.687Z,1166.00
2023-02-19T21:55:58.726Z,1212.00
2023-02-19T21:56:54.668Z,1050.00
2023-02-19T21:57:53.650Z,1003.00
2023-02-19T21:58:53.629Z,1027.00
2023-02-19T21:59:53.610Z,875.00
2023-02-19T22:00:53.750Z,769.00
2023-02-19T22:01:53.589Z,833.00
2023-02-19T22:02:53.739Z,1101.00
2023-02-19T22:03:53.620Z,1122.00
2023-02-19T22:04:53.588Z,1042.00
2023-02-19T22:05:53.580Z,1167.00
2023-02-19T22:06:53.591Z,1151.00
2023-02-19T22:07:53.580Z,987.00
2023-02-19T22:08:53.560Z,1115.00
2023-02-19T22:09:53.571Z,1310.00
2023-02-19T22:10:53.575Z,1228.00
2023-02-19T22:11:53.582Z,1253.00
2023-02-19T22:12:53.630Z,1101.00
2023-02-19T22:13:53.641Z,1206.00
2023-02-19T22:14:53.692Z,1220.00
2023-02-19T22:15:53.753Z,1065.00
2023-02-19T22:16:53.721Z,1214.00
2023-02-19T22:20:33.498Z,500.00
2023-02-19T22:21:33.672Z,500.00
2023-02-19T22:22:33.404Z,500.00
2023-02-19T22:23:33.345Z,500.00
2023-02-19T22:24:33.360Z,500.00
2023-02-19T22:25:33.356Z,511.00
2023-02-19T22:26:33.336Z,500.00
2023-02-19T22:27:33.312Z,536.00
2023-02-19T22:28:33.353Z,527.00
2023-02-19T22:29:33.366Z,535.00
2023-02-19T22:30:33.395Z,400.00
2023-02-19T22:31:33.377Z,400.00
2023-02-19T22:32:33.603Z,400.00
2023-02-19T22:33:33.332Z,400.00
2023-02-19T22:34:33.267Z,400.00
2023-02-19T22:35:33.275Z,400.00
2023-02-19T22:36:33.280Z,419.00
2023-02-19T22:37:33.292Z,422.00
2023-02-19T22:38:33.285Z,400.00
2023-02-19T22:39:33.332Z,457.00
2023-02-19T22:40:33.215Z,400.00
2023-02-19T22:41:33.216Z,400.00
2023-02-19T22:42:35.713Z,400.00
2023-02-19T22:43:33.242Z,400.00
2023-02-19T22:44:33.191Z,400.00
2023-02-19T22:45:33.269Z,511.00
2023-02-19T22:46:33.169Z,501.00
2023-02-19T22:47:33.184Z,499.00
2023-02-19T22:48:33.205Z,603.00
2023-02-19T22:49:33.181Z,595.00
2023-02-19T22:50:33.194Z,591.00
2023-02-19T22:52:53.357Z,500.00
2023-02-19T22:53:53.573Z,500.00
2023-02-19T22:54:53.359Z,500.00
2023-02-19T22:55:53.277Z,500.00
2023-02-19T22:56:53.236Z,500.00